Time;durP1;ratioP1;P1;durP2;ratioP2;P2;SDS_P1;SDS_P2;PMS_P1;PMS_P2;Temp;Humidity;BMP_temperature;BMP_pressure;BME280_temperature;BME280_humidity;BME280_pressure;Samples;Min_cycle;Max_cycle;Signal;HPM_P1;HPM_P2
2023/04/07 00:00:09;;;;;;;13.13;6.53;;;7.50;99.90;;;;;;5008728;28;20049;-74
2023/04/07 00:02:38;;;;;;;11.07;6.30;;;7.50;99.90;;;;;;5008605;28;20033;-75
2023/04/07 00:05:04;;;;;;;9.35;6.43;;;7.40;99.90;;;;;;5007182;28;20029;-74
2023/04/07 00:07:35;;;;;;;12.00;6.25;;;7.50;99.90;;;;;;5006906;28;21456;-75
2023/04/07 00:10:01;;;;;;;10.00;6.30;;;7.40;99.90;;;;;;5021540;28;20486;-74
2023/04/07 00:12:30;;;;;;;10.88;6.25;;;7.30;99.90;;;;;;5008791;28;20044;-75
2023/04/07 00:14:55;;;;;;;10.80;6.07;;;7.30;99.90;;;;;;5005472;28;20018;-75
2023/04/07 00:17:24;;;;;;;11.35;6.57;;;7.30;99.90;;;;;;5008641;28;20049;-74
2023/04/07 00:19:50;;;;;;;13.15;7.10;;;7.20;99.90;;;;;;5010350;28;20455;-74
2023/04/07 00:22:16;;;;;;;11.75;6.82;;;7.20;99.90;;;;;;5011749;28;20034;-74
2023/04/07 00:24:48;;;;;;;11.52;7.28;;;7.20;99.90;;;;;;5006496;28;20168;-74
2023/04/07 00:27:17;;;;;;;14.38;7.32;;;7.20;99.90;;;;;;5010852;28;20030;-74
2023/04/07 00:29:45;;;;;;;9.50;6.75;;;7.20;99.90;;;;;;5011453;28;20034;-74
2023/04/07 00:32:13;;;;;;;14.20;7.10;;;7.20;99.90;;;;;;5012823;28;20022;-74
2023/04/07 00:34:39;;;;;;;11.68;6.50;;;7.20;99.90;;;;;;5012642;28;20044;-74
2023/04/07 00:37:08;;;;;;;11.02;6.97;;;7.10;99.90;;;;;;5014848;28;20029;-74
2023/04/07 00:39:42;;;;;;;10.45;6.45;;;7.10;99.90;;;;;;5026953;28;20390;-73
2023/04/07 00:42:08;;;;;;;12.52;7.22;;;7.10;99.90;;;;;;5029770;28;20030;-73
2023/04/07 00:44:34;;;;;;;12.38;7.25;;;7.20;99.90;;;;;;5012613;28;20034;-74
2023/04/07 00:47:05;;;;;;;10.77;6.78;;;7.10;99.90;;;;;;5012547;28;20041;-74
2023/04/07 00:49:31;;;;;;;14.07;7.78;;;7.20;99.90;;;;;;5013670;28;20355;-74
2023/04/07 00:52:00;;;;;;;12.75;7.15;;;7.10;99.90;;;;;;5011972;28;20021;-75
2023/04/07 00:54:29;;;;;;;12.05;7.15;;;7.10;99.90;;;;;;5011631;28;20092;-75
2023/04/07 00:56:56;;;;;;;14.05;7.55;;;7.10;99.90;;;;;;5014007;28;20025;-74
2023/04/07 00:59:30;;;;;;;17.10;7.45;;;7.10;99.90;;;;;;5012705;28;20026;-74
2023/04/07 01:02:10;;;;;;;;;;;7.10;99.90;;;;;;5028613;28;20068;-75
2023/04/07 01:05:17;;;;;;;10.98;7.13;;;7.20;99.90;;;;;;5014196;28;19909;-75
2023/04/07 01:08:05;;;;;;;16.00;7.93;;;7.20;99.90;;;;;;5013040;28;20053;-74
2023/04/07 01:10:52;;;;;;;13.75;7.88;;;7.20;99.90;;;;;;5029855;28;20506;-74
2023/04/07 01:13:27;;;;;;;12.63;8.23;;;7.20;99.90;;;;;;5010938;28;20064;-76
2023/04/07 01:15:57;;;;;;;14.85;7.93;;;7.20;99.90;;;;;;5011969;28;20371;-76
2023/04/07 01:18:33;;;;;;;14.02;7.15;;;7.20;99.90;;;;;;5011062;28;20097;-76
2023/04/07 01:21:15;;;;;;;12.95;8.05;;;7.20;99.90;;;;;;5011158;28;20510;-75
2023/04/07 01:24:19;;;;;;;13.27;7.80;;;7.20;99.90;;;;;;5009925;28;20048;-75
2023/04/07 01:26:46;;;;;;;17.35;8.70;;;7.20;99.90;;;;;;4985595;28;20045;-75
2023/04/07 01:29:36;;;;;;;14.25;8.25;;;7.20;99.90;;;;;;5007901;28;20030;-75
2023/04/07 01:32:08;;;;;;;12.27;7.10;;;7.20;99.90;;;;;;5006069;28;20033;-75
2023/04/07 01:34:44;;;;;;;12.00;7.78;;;7.20;99.90;;;;;;5020935;28;20006;-76
2023/04/07 01:37:17;;;;;;;14.60;7.70;;;7.20;99.90;;;;;;5013836;28;20032;-77
2023/04/07 01:39:46;;;;;;;12.93;7.63;;;7.20;99.90;;;;;;5007298;28;20029;-77
2023/04/07 01:42:12;;;;;;;14.93;7.45;;;7.20;99.90;;;;;;5022172;28;20112;-76
2023/04/07 01:44:39;;;;;;;14.45;7.80;;;7.20;99.90;;;;;;5010101;28;20072;-76
2023/04/07 01:47:11;;;;;;;11.85;7.20;;;7.10;99.90;;;;;;5011399;28;20025;-75
2023/04/07 01:49:39;;;;;;;13.45;7.53;;;7.20;99.90;;;;;;5005837;28;20048;-75
2023/04/07 01:52:06;;;;;;;13.85;7.80;;;7.10;99.90;;;;;;5011978;28;20105;-75
2023/04/07 01:54:33;;;;;;;12.88;7.93;;;7.20;99.90;;;;;;5012187;28;20034;-74
2023/04/07 01:57:01;;;;;;;12.20;7.32;;;7.20;99.90;;;;;;5009266;28;20399;-75
2023/04/07 01:59:33;;;;;;;16.58;8.25;;;7.20;99.90;;;;;;5014001;28;20029;-75
2023/04/07 02:02:02;;;;;;;12.00;7.50;;;7.20;99.90;;;;;;5022609;28;20029;-75
2023/04/07 02:04:44;;;;;;;15.98;8.32;;;7.20;99.90;;;;;;5010461;28;20203;-75
2023/04/07 02:07:34;;;;;;;13.90;7.43;;;7.20;99.90;;;;;;5012744;28;20030;-76
2023/04/07 02:10:02;;;;;;;13.52;7.75;;;7.20;99.90;;;;;;5007235;28;20038;-75
2023/04/07 02:12:30;;;;;;;12.85;7.22;;;7.20;99.90;;;;;;5013103;28;20152;-74
2023/04/07 02:14:57;;;;;;;12.13;7.47;;;7.20;99.90;;;;;;5008227;28;20474;-75
2023/04/07 02:17:27;;;;;;;11.27;6.57;;;7.20;99.90;;;;;;5006852;28;20026;-76
2023/04/07 02:19:55;;;;;;;12.35;7.90;;;7.20;99.90;;;;;;5005750;28;20022;-75
2023/04/07 02:22:20;;;;;;;12.30;7.90;;;7.20;99.90;;;;;;5004539;28;20120;-76
2023/04/07 02:24:46;;;;;;;13.98;8.23;;;7.20;99.90;;;;;;5006861;28;20030;-74
2023/04/07 02:27:15;;;;;;;12.30;7.57;;;7.20;99.90;;;;;;5008902;28;20041;-73
2023/04/07 02:29:41;;;;;;;13.75;7.80;;;7.20;99.90;;;;;;5010554;28;20472;-74
2023/04/07 02:32:10;;;;;;;11.65;7.22;;;7.30;99.90;;;;;;5011925;28;20022;-74
2023/04/07 02:34:41;;;;;;;13.40;8.07;;;7.30;99.90;;;;;;5017285;28;20030;-74
2023/04/07 02:37:07;;;;;;;15.43;7.47;;;7.30;99.90;;;;;;5010120;28;20029;-72
2023/04/07 02:39:32;;;;;;;12.90;7.93;;;7.30;99.90;;;;;;5008879;28;20026;-74
2023/04/07 02:41:58;;;;;;;11.10;7.18;;;7.30;99.90;;;;;;5007514;28;20523;-73
2023/04/07 02:44:33;;;;;;;15.82;7.65;;;7.30;99.90;;;;;;5027339;28;20117;-74
2023/04/07 02:46:58;;;;;;;11.05;6.75;;;7.30;99.90;;;;;;5011898;28;20022;-74
2023/04/07 02:49:24;;;;;;;13.00;7.70;;;7.30;99.90;;;;;;5011072;28;20088;-76
2023/04/07 02:51:49;;;;;;;12.60;8.07;;;7.30;99.90;;;;;;5011890;28;20026;-75
2023/04/07 02:54:15;;;;;;;13.82;7.88;;;7.40;99.90;;;;;;5011113;28;20053;-75
2023/04/07 02:56:41;;;;;;;10.60;6.65;;;7.40;99.90;;;;;;5023773;28;20117;-75
2023/04/07 02:59:15;;;;;;;13.45;8.23;;;7.40;99.90;;;;;;5013243;28;20523;-75
2023/04/07 03:01:41;;;;;;;17.45;10.70;;;7.40;99.90;;;;;;5010129;28;20363;-75
2023/04/07 03:04:07;;;;;;;15.07;8.75;;;7.40;99.90;;;;;;5013109;28;20038;-75
2023/04/07 03:06:32;;;;;;;13.77;8.23;;;7.40;99.90;;;;;;5010944;28;20033;-75
2023/04/07 03:09:04;;;;;;;12.32;7.35;;;7.50;99.90;;;;;;5008650;28;20022;-75
2023/04/07 03:11:32;;;;;;;11.00;7.32;;;7.50;99.90;;;;;;5008671;28;20045;-75
2023/04/07 03:13:58;;;;;;;15.10;8.30;;;7.50;99.90;;;;;;5011509;28;20022;-75
2023/04/07 03:16:24;;;;;;;12.50;6.97;;;7.40;99.90;;;;;;5009092;28;20036;-76
2023/04/07 03:18:50;;;;;;;13.45;7.60;;;7.40;99.90;;;;;;5011160;28;20037;-76
2023/04/07 03:21:15;;;;;;;13.73;7.38;;;7.40;99.90;;;;;;5010800;28;20029;-75
2023/04/07 03:23:41;;;;;;;14.32;7.97;;;7.50;99.90;;;;;;5006711;28;20078;-75
2023/04/07 03:26:10;;;;;;;13.50;7.13;;;7.50;99.90;;;;;;5010159;28;20034;-76
2023/04/07 03:28:47;;;;;;;13.82;8.23;;;7.50;99.90;;;;;;5032127;28;20101;-75
2023/04/07 03:31:13;;;;;;;12.43;7.43;;;7.50;99.90;;;;;;5020058;28;20120;-76
2023/04/07 03:33:39;;;;;;;10.73;7.15;;;7.50;99.90;;;;;;5007503;28;20028;-75
2023/04/07 03:36:05;;;;;;;12.93;7.28;;;7.50;99.90;;;;;;5007838;28;20678;-76
2023/04/07 03:38:34;;;;;;;11.68;7.07;;;7.50;99.90;;;;;;5005210;28;20041;-75
2023/04/07 03:40:59;;;;;;;11.18;7.55;;;7.40;99.90;;;;;;5009472;28;20030;-75
2023/04/07 03:43:26;;;;;;;13.52;7.60;;;7.50;99.90;;;;;;5010602;28;20026;-75
2023/04/07 03:45:55;;;;;;;11.57;7.60;;;7.50;99.90;;;;;;5010068;28;20041;-75
2023/04/07 03:48:26;;;;;;;12.55;7.53;;;7.50;99.90;;;;;;5006349;28;20041;-75
2023/04/07 03:50:52;;;;;;;9.93;6.53;;;7.50;99.90;;;;;;5007003;28;20031;-74
2023/04/07 03:53:21;;;;;;;11.32;7.50;;;7.50;99.90;;;;;;5007436;28;20038;-74
2023/04/07 03:55:47;;;;;;;13.13;7.70;;;7.40;99.90;;;;;;5009912;28;20030;-75
2023/04/07 03:58:13;;;;;;;15.05;7.70;;;7.40;99.90;;;;;;5006580;28;20026;-75
2023/04/07 04:00:44;;;;;;;17.58;7.78;;;7.40;99.90;;;;;;5011379;28;20036;-75
2023/04/07 04:03:10;;;;;;;11.55;7.32;;;7.40;99.90;;;;;;5013475;28;20026;-74
2023/04/07 04:05:36;;;;;;;12.90;7.95;;;7.40;99.90;;;;;;5011397;28;20032;-75
2023/04/07 04:08:07;;;;;;;10.65;6.97;;;7.40;99.90;;;;;;5011134;28;20030;-75
2023/04/07 04:10:33;;;;;;;13.10;7.05;;;7.40;99.90;;;;;;5011784;28;20028;-75
2023/04/07 04:13:05;;;;;;;11.13;7.20;;;7.40;99.90;;;;;;5009842;28;20030;-75
2023/04/07 04:15:31;;;;;;;11.77;7.20;;;7.40;99.90;;;;;;5012704;28;20359;-75
2023/04/07 04:18:03;;;;;;;14.00;6.78;;;7.40;99.90;;;;;;5005540;28;20023;-74
2023/04/07 04:20:36;;;;;;;13.20;7.13;;;7.40;99.90;;;;;;5009456;28;20494;-74
2023/04/07 04:23:01;;;;;;;13.45;8.27;;;7.40;99.90;;;;;;5008869;28;20026;-74
2023/04/07 04:25:27;;;;;;;12.07;6.90;;;7.40;99.90;;;;;;5010908;28;20049;-74
2023/04/07 04:27:56;;;;;;;11.60;7.18;;;7.40;99.90;;;;;;5008158;28;20026;-74
2023/04/07 04:30:28;;;;;;;12.55;7.90;;;7.40;99.90;;;;;;5009882;28;20022;-75
2023/04/07 04:32:54;;;;;;;12.63;7.57;;;7.30;99.90;;;;;;5011932;28;20030;-74
2023/04/07 04:35:20;;;;;;;10.77;7.53;;;7.30;99.90;;;;;;5010653;28;20014;-74
2023/04/07 04:37:49;;;;;;;13.23;7.68;;;7.30;99.90;;;;;;5002691;28;20033;-74
2023/04/07 04:40:15;;;;;;;13.60;7.57;;;7.30;99.90;;;;;;5002508;28;20030;-74
2023/04/07 04:42:44;;;;;;;12.43;6.63;;;7.30;99.90;;;;;;5009291;28;20033;-74
2023/04/07 04:45:16;;;;;;;15.15;8.30;;;7.30;99.90;;;;;;5012722;28;20761;-72
2023/04/07 04:47:48;;;;;;;15.27;7.25;;;7.30;99.90;;;;;;5002847;28;20029;-73
2023/04/07 04:50:13;;;;;;;13.32;7.85;;;7.30;99.90;;;;;;5006911;28;20061;-73
2023/04/07 04:52:48;;;;;;;11.35;7.10;;;7.30;99.90;;;;;;5010487;28;20030;-74
2023/04/07 04:55:16;;;;;;;11.55;7.38;;;7.30;99.90;;;;;;5006605;28;20121;-74
2023/04/07 04:57:48;;;;;;;14.23;7.90;;;7.30;99.90;;;;;;5008641;28;20040;-74
2023/04/07 05:00:14;;;;;;;11.32;6.97;;;7.30;99.90;;;;;;5009322;28;20091;-74
2023/04/07 05:02:43;;;;;;;12.85;7.30;;;7.30;99.90;;;;;;5010017;28;20117;-73
2023/04/07 05:05:14;;;;;;;14.60;7.65;;;7.30;99.90;;;;;;5010012;28;20045;-74
2023/04/07 05:07:43;;;;;;;11.38;7.63;;;7.30;99.90;;;;;;5006851;28;20037;-74
2023/04/07 05:10:09;;;;;;;13.65;7.45;;;7.30;99.90;;;;;;5010842;28;20040;-74
2023/04/07 05:12:38;;;;;;;13.07;7.60;;;7.30;99.90;;;;;;5004847;28;20466;-74
2023/04/07 05:15:22;;;;;;;11.40;7.28;;;7.30;99.90;;;;;;5010503;28;20037;-76
2023/04/07 05:17:49;;;;;;;12.73;7.57;;;7.30;99.90;;;;;;5013206;28;20096;-76
2023/04/07 05:20:22;;;;;;;16.33;8.35;;;7.30;99.90;;;;;;5015319;28;20034;-75
2023/04/07 05:22:57;;;;;;;14.90;8.63;;;7.30;99.90;;;;;;5012158;28;20026;-75
2023/04/07 05:25:28;;;;;;;13.13;8.07;;;7.30;99.90;;;;;;5011533;28;20038;-75
2023/04/07 05:27:54;;;;;;;15.48;8.02;;;7.30;99.90;;;;;;5010981;28;20463;-76
2023/04/07 05:30:23;;;;;;;14.27;8.25;;;7.30;99.90;;;;;;5008211;28;20033;-74
2023/04/07 05:32:54;;;;;;;15.30;8.45;;;7.30;99.90;;;;;;5010685;28;20025;-74
2023/04/07 05:35:29;;;;;;;13.80;8.02;;;7.30;99.90;;;;;;5010129;28;20029;-75
2023/04/07 05:37:55;;;;;;;12.43;7.35;;;7.30;99.90;;;;;;5010035;28;20026;-75
2023/04/07 05:40:20;;;;;;;14.07;8.40;;;7.30;99.90;;;;;;5008562;28;20025;-74
2023/04/07 05:42:46;;;;;;;15.07;9.27;;;7.30;99.90;;;;;;5004381;28;20030;-75
2023/04/07 05:45:12;;;;;;;14.48;8.43;;;7.30;99.90;;;;;;5012371;28;20022;-75
2023/04/07 05:47:40;;;;;;;14.45;8.18;;;7.40;99.90;;;;;;5007908;28;20033;-74
2023/04/07 05:50:06;;;;;;;14.50;7.57;;;7.40;99.90;;;;;;5010052;28;20037;-75
2023/04/07 05:52:38;;;;;;;14.02;7.43;;;7.40;99.90;;;;;;5008279;28;20086;-75
2023/04/07 05:55:05;;;;;;;12.60;7.50;;;7.40;99.90;;;;;;5008763;28;20022;-74
2023/04/07 05:57:31;;;;;;;15.48;8.35;;;7.40;99.90;;;;;;5011135;28;20042;-75
2023/04/07 05:59:57;;;;;;;13.57;8.30;;;7.40;99.90;;;;;;5014009;28;20080;-75
2023/04/07 06:02:23;;;;;;;13.73;8.27;;;7.50;99.90;;;;;;5014203;28;20422;-75
2023/04/07 06:04:48;;;;;;;13.70;8.52;;;7.50;99.90;;;;;;5011742;28;20129;-74
2023/04/07 06:07:17;;;;;;;17.27;7.65;;;7.50;99.90;;;;;;5013600;28;20025;-74
2023/04/07 06:09:44;;;;;;;14.07;8.18;;;7.50;99.90;;;;;;5014514;28;20130;-74
2023/04/07 06:12:22;;;;;;;16.25;8.35;;;7.50;99.90;;;;;;5009868;28;20029;-73
2023/04/07 06:14:53;;;;;;;12.10;7.80;;;7.50;99.90;;;;;;5009544;28;20029;-74
2023/04/07 06:17:19;;;;;;;12.48;7.97;;;7.50;99.90;;;;;;5008537;28;20082;-74
2023/04/07 06:19:44;;;;;;;12.85;7.65;;;7.60;99.90;;;;;;5013920;28;20114;-75
2023/04/07 06:22:10;;;;;;;13.75;7.47;;;7.60;99.90;;;;;;5007219;28;20037;-75
2023/04/07 06:24:36;;;;;;;12.52;8.07;;;7.60;99.90;;;;;;5006448;28;20072;-73
2023/04/07 06:27:02;;;;;;;14.38;7.82;;;7.60;99.90;;;;;;5026417;28;20085;-73
2023/04/07 06:29:28;;;;;;;12.45;7.93;;;7.60;99.90;;;;;;5010916;28;20034;-72
2023/04/07 06:31:54;;;;;;;13.90;8.30;;;7.70;99.90;;;;;;5008694;28;20073;-73
2023/04/07 06:34:20;;;;;;;13.02;7.65;;;7.70;99.90;;;;;;5009846;28;20371;-73
2023/04/07 06:36:52;;;;;;;13.18;7.47;;;7.70;99.90;;;;;;5010881;28;20471;-73
2023/04/07 06:39:27;;;;;;;11.48;7.03;;;7.70;99.90;;;;;;5011194;28;20036;-73
2023/04/07 06:41:53;;;;;;;12.82;7.68;;;7.70;99.90;;;;;;5009960;28;20065;-73
2023/04/07 06:44:18;;;;;;;11.52;8.27;;;7.70;99.90;;;;;;5013069;28;20049;-73
2023/04/07 06:46:51;;;;;;;15.63;8.07;;;7.80;99.90;;;;;;5014157;28;20345;-74
2023/04/07 06:49:17;;;;;;;16.77;9.30;;;7.80;99.90;;;;;;5022632;28;20034;-73
2023/04/07 06:51:43;;;;;;;15.40;8.30;;;7.90;99.90;;;;;;5005186;28;21175;-72
2023/04/07 06:54:15;;;;;;;14.48;8.18;;;7.90;99.90;;;;;;5011106;28;20100;-71
2023/04/07 06:56:43;;;;;;;12.48;8.30;;;8.00;99.90;;;;;;5004339;28;20087;-71
2023/04/07 06:59:09;;;;;;;12.57;7.15;;;8.00;99.90;;;;;;5005915;28;21316;-72
2023/04/07 07:01:36;;;;;;;14.48;7.72;;;8.00;99.90;;;;;;5005322;28;20045;-72
2023/04/07 07:04:02;;;;;;;11.73;7.95;;;8.20;99.90;;;;;;5010805;28;20030;-71
2023/04/07 07:06:28;;;;;;;9.60;6.88;;;8.20;99.90;;;;;;5009773;28;20133;-72
2023/04/07 07:09:01;;;;;;;10.35;6.70;;;8.30;99.90;;;;;;5008747;28;20022;-73
2023/04/07 07:11:27;;;;;;;11.85;7.93;;;8.40;99.90;;;;;;4999753;28;20041;-74
2023/04/07 07:13:53;;;;;;;12.40;7.78;;;8.50;99.90;;;;;;5010056;28;20514;-74
2023/04/07 07:16:18;;;;;;;13.05;7.38;;;8.50;99.90;;;;;;5025755;28;20026;-74
2023/04/07 07:18:44;;;;;;;12.30;7.47;;;8.60;99.90;;;;;;5008971;28;20030;-74
2023/04/07 07:21:10;;;;;;;11.98;7.25;;;8.60;99.90;;;;;;5006253;28;20501;-73
2023/04/07 07:23:36;;;;;;;11.90;7.20;;;8.60;99.90;;;;;;5009331;28;20029;-73
2023/04/07 07:26:03;;;;;;;11.82;7.40;;;8.70;99.90;;;;;;5007425;28;20076;-74
2023/04/07 07:28:35;;;;;;;11.30;7.22;;;8.70;99.90;;;;;;5011884;28;20467;-74
2023/04/07 07:31:07;;;;;;;11.93;6.70;;;8.80;99.90;;;;;;5009174;28;20053;-75
2023/04/07 07:33:39;;;;;;;11.52;7.30;;;8.80;99.90;;;;;;5008879;28;20048;-74
2023/04/07 07:36:19;;;;;;;11.07;7.47;;;8.80;99.90;;;;;;5007677;28;20438;-74
2023/04/07 07:38:54;;;;;;;12.50;7.07;;;8.90;99.90;;;;;;5012433;28;20053;-74
2023/04/07 07:41:19;;;;;;;10.60;6.57;;;8.90;99.90;;;;;;5013509;28;20030;-74
2023/04/07 07:43:46;;;;;;;11.85;6.60;;;9.00;99.90;;;;;;5010871;28;20026;-74
2023/04/07 07:46:15;;;;;;;10.90;6.82;;;9.00;99.90;;;;;;5012853;28;20030;-74
2023/04/07 07:48:45;;;;;;;13.43;6.70;;;9.10;99.90;;;;;;5010921;28;20030;-74
2023/04/07 07:51:10;;;;;;;11.75;7.03;;;9.20;99.90;;;;;;5007914;28;20497;-73
2023/04/07 07:53:39;;;;;;;11.77;7.40;;;9.20;99.90;;;;;;5009209;28;20025;-75
2023/04/07 07:56:12;;;;;;;10.55;6.65;;;9.30;99.90;;;;;;5012492;28;20110;-74
2023/04/07 07:58:43;;;;;;;10.73;6.63;;;9.30;99.90;;;;;;5007712;28;20054;-75
2023/04/07 08:01:12;;;;;;;8.77;6.20;;;9.40;99.90;;;;;;5008323;28;20030;-73
2023/04/07 08:03:44;;;;;;;9.90;5.88;;;9.50;99.90;;;;;;5009985;28;20034;-75
2023/04/07 08:06:10;;;;;;;9.70;6.47;;;9.60;99.90;;;;;;5007507;28;20030;-79
2023/04/07 08:08:39;;;;;;;10.88;6.45;;;9.70;99.90;;;;;;5010198;28;20026;-75
2023/04/07 08:11:07;;;;;;;7.93;5.22;;;9.80;99.90;;;;;;5006489;28;20055;-74
2023/04/07 08:13:36;;;;;;;8.82;5.53;;;9.80;99.90;;;;;;5009983;28;20383;-73
2023/04/07 08:16:02;;;;;;;8.95;4.97;;;9.90;99.90;;;;;;5009513;28;20077;-74
2023/04/07 08:18:27;;;;;;;9.98;5.75;;;10.10;99.90;;;;;;5012268;28;20422;-73
2023/04/07 08:20:59;;;;;;;9.13;5.03;;;10.10;99.90;;;;;;5007498;28;20029;-71
2023/04/07 08:23:27;;;;;;;7.10;4.57;;;10.30;99.90;;;;;;5006693;28;20057;-71
2023/04/07 08:25:59;;;;;;;6.88;4.50;;;10.30;99.90;;;;;;5008738;28;20030;-73
2023/04/07 08:28:28;;;;;;;6.90;4.07;;;10.30;99.90;;;;;;5010522;28;20038;-73
2023/04/07 08:30:57;;;;;;;6.68;4.55;;;10.50;99.90;;;;;;5006305;28;20045;-73
2023/04/07 08:33:22;;;;;;;8.10;4.20;;;10.50;99.90;;;;;;5009734;28;20505;-74
2023/04/07 08:35:48;;;;;;;7.57;4.95;;;10.60;99.90;;;;;;5000131;28;20022;-71
2023/04/07 08:38:13;;;;;;;8.60;4.55;;;10.70;99.90;;;;;;5001973;28;20348;-72
2023/04/07 08:40:40;;;;;;;7.10;4.43;;;10.70;99.90;;;;;;5005914;28;20034;-70
2023/04/07 08:43:09;;;;;;;9.20;4.45;;;10.70;99.90;;;;;;5003057;28;20108;-72
2023/04/07 08:45:41;;;;;;;7.25;4.28;;;10.80;99.90;;;;;;5001931;28;20037;-70
2023/04/07 08:48:16;;;;;;;5.85;4.18;;;10.80;99.90;;;;;;5013818;28;20030;-72
2023/04/07 08:50:45;;;;;;;7.22;3.50;;;10.80;99.90;;;;;;5009423;28;20034;-74
2023/04/07 08:53:18;;;;;;;5.75;3.78;;;10.80;99.90;;;;;;5007911;28;20137;-74
2023/04/07 08:55:43;;;;;;;5.53;3.70;;;10.80;99.90;;;;;;5004179;28;20386;-74
2023/04/07 08:58:13;;;;;;;7.07;4.05;;;10.70;99.90;;;;;;5007154;28;20030;-74
2023/04/07 09:00:44;;;;;;;7.60;5.30;;;10.70;99.90;;;;;;5007470;28;20394;-72
2023/04/07 09:03:10;;;;;;;10.00;4.47;;;10.80;99.90;;;;;;5009410;28;20034;-74
2023/04/07 09:05:37;;;;;;;6.43;4.03;;;10.80;99.90;;;;;;5003565;28;20029;-76
2023/04/07 09:08:03;;;;;;;8.25;3.67;;;10.80;99.90;;;;;;5013633;28;20498;-75
2023/04/07 09:10:29;;;;;;;8.48;4.15;;;10.70;99.90;;;;;;5009623;28;20038;-76
2023/04/07 09:12:56;;;;;;;10.15;4.38;;;10.70;99.90;;;;;;5021987;28;20053;-74
2023/04/07 09:15:22;;;;;;;6.10;4.25;;;10.70;99.90;;;;;;5008049;28;20060;-75
2023/04/07 09:17:48;;;;;;;7.28;3.83;;;10.60;99.90;;;;;;5008154;28;20065;-76
2023/04/07 09:20:14;;;;;;;6.28;4.32;;;10.60;99.90;;;;;;5010251;28;20049;-75
2023/04/07 09:22:44;;;;;;;6.50;4.47;;;10.50;99.90;;;;;;5008699;28;20030;-75
2023/04/07 09:25:28;;;;;;;6.55;4.13;;;10.50;99.90;;;;;;5009103;28;20033;-75
2023/04/07 09:28:01;;;;;;;6.15;4.03;;;10.50;99.90;;;;;;5006671;28;20104;-74
2023/04/07 09:30:32;;;;;;;6.03;3.63;;;10.50;99.90;;;;;;5007967;28;20383;-75
2023/04/07 09:32:59;;;;;;;5.10;2.90;;;10.50;99.90;;;;;;5009530;28;20033;-75
2023/04/07 09:35:27;;;;;;;5.63;2.95;;;10.60;99.90;;;;;;5018336;28;20391;-75
2023/04/07 09:38:11;;;;;;;7.35;3.88;;;10.50;99.90;;;;;;5002700;28;20019;-74
2023/04/07 09:40:37;;;;;;;10.55;4.50;;;10.70;99.90;;;;;;5022844;28;20053;-74
2023/04/07 09:43:04;;;;;;;6.95;3.65;;;10.80;99.90;;;;;;5008805;28;21432;-75
2023/04/07 09:45:31;;;;;;;11.40;3.90;;;10.80;99.90;;;;;;5009238;28;20081;-74
2023/04/07 09:47:56;;;;;;;7.95;3.88;;;10.90;99.90;;;;;;5006996;28;20057;-74
2023/04/07 09:50:40;;;;;;;6.60;3.92;;;11.00;99.90;;;;;;5004419;28;20057;-74
2023/04/07 09:53:09;;;;;;;9.55;4.32;;;11.00;99.90;;;;;;5023839;28;20025;-72
2023/04/07 09:55:41;;;;;;;7.13;4.07;;;11.00;99.90;;;;;;5010803;28;20495;-75
2023/04/07 09:58:08;;;;;;;4.45;2.95;;;11.10;99.90;;;;;;5007769;28;20022;-75
2023/04/07 10:00:37;;;;;;;6.32;3.05;;;11.10;99.90;;;;;;5011372;28;20022;-73
2023/04/07 10:03:06;;;;;;;7.03;3.28;;;11.20;99.90;;;;;;5004078;28;20033;-74
2023/04/07 10:05:35;;;;;;;7.45;3.08;;;11.30;99.90;;;;;;5009744;28;20520;-73
2023/04/07 10:08:08;;;;;;;6.85;3.25;;;11.50;99.90;;;;;;5005447;28;20439;-73
2023/04/07 10:10:35;;;;;;;6.73;3.60;;;11.60;99.90;;;;;;5002208;28;20396;-73
2023/04/07 10:13:05;;;;;;;6.38;3.10;;;11.70;99.90;;;;;;4995689;28;20022;-74
2023/04/07 10:15:46;;;;;;;6.25;3.03;;;11.90;99.90;;;;;;5021641;28;20056;-76
2023/04/07 10:18:14;;;;;;;4.78;2.38;;;12.00;99.80;;;;;;4996504;28;20041;-75
2023/04/07 10:20:41;;;;;;;3.70;2.45;;;12.00;99.80;;;;;;5039850;23;20573;-79
2023/04/07 10:23:16;;;;;;;10.55;3.50;;;12.10;99.60;;;;;;5030929;28;20073;-79
2023/04/07 10:25:44;;;;;;;7.30;2.85;;;12.10;99.60;;;;;;5035472;28;20029;-78
2023/04/07 10:28:12;;;;;;;7.70;2.83;;;12.20;99.70;;;;;;5029984;28;20081;-78
2023/04/07 10:30:39;;;;;;;7.00;3.28;;;12.20;99.60;;;;;;5026509;28;20104;-78
2023/04/07 10:33:04;;;;;;;6.20;3.10;;;12.10;99.20;;;;;;5009861;28;20474;-77
2023/04/07 10:36:02;;;;;;;5.65;2.53;;;12.10;99.20;;;;;;5016430;28;20036;-78
2023/04/07 10:38:28;;;;;;;9.35;2.55;;;12.10;98.60;;;;;;5014156;28;20084;-77
2023/04/07 10:40:53;;;;;;;4.80;1.95;;;12.20;98.60;;;;;;5010659;28;20045;-79
2023/04/07 10:43:40;;;;;;;7.35;2.42;;;12.30;98.20;;;;;;5010232;28;20025;-78
2023/04/07 10:46:06;;;;;;;5.40;2.70;;;12.40;97.90;;;;;;5011648;28;20148;-79
2023/04/07 10:48:32;;;;;;;6.20;1.85;;;12.50;97.10;;;;;;5014516;28;20080;-80
2023/04/07 10:51:04;;;;;;;6.40;2.00;;;12.50;96.40;;;;;;5015965;28;20033;-78
2023/04/07 10:53:30;;;;;;;4.20;1.92;;;12.60;96.30;;;;;;5013252;28;20022;-80
2023/04/07 10:55:58;;;;;;;7.57;2.47;;;12.70;96.20;;;;;;5011219;28;20033;-79
2023/04/07 10:58:31;;;;;;;4.43;2.10;;;12.80;96.00;;;;;;5025843;28;20581;-80
2023/04/07 11:01:03;;;;;;;6.43;2.28;;;12.90;95.60;;;;;;5013456;28;20029;-78
2023/04/07 11:03:31;;;;;;;6.10;2.30;;;13.10;95.50;;;;;;5010772;28;20788;-79
2023/04/07 11:06:12;;;;;;;7.18;2.45;;;13.20;95.00;;;;;;5008086;28;20037;-79
2023/04/07 11:08:42;;;;;;;4.57;1.88;;;13.30;94.60;;;;;;5013735;28;20033;-79
2023/04/07 11:11:09;;;;;;;5.18;2.20;;;13.40;94.10;;;;;;5012343;28;20099;-79
2023/04/07 11:13:49;;;;;;;9.52;2.47;;;13.60;94.10;;;;;;5010659;28;20045;-80
2023/04/07 11:16:17;;;;;;;5.57;2.30;;;13.70;93.60;;;;;;5016202;28;20359;-79
2023/04/07 11:18:44;;;;;;;3.15;1.85;;;13.70;93.10;;;;;;5013152;28;20018;-78
2023/04/07 11:21:18;;;;;;;3.38;2.20;;;13.70;93.00;;;;;;5011254;28;20026;-78
2023/04/07 11:23:47;;;;;;;4.32;2.13;;;13.70;93.40;;;;;;5019734;28;20069;-80
2023/04/07 11:26:14;;;;;;;7.85;3.00;;;13.60;93.30;;;;;;5026729;28;20026;-78
2023/04/07 11:28:51;;;;;;;3.80;2.00;;;13.60;93.10;;;;;;5018459;28;20034;-78
2023/04/07 11:31:30;;;;;;;7.00;2.60;;;13.40;92.70;;;;;;5017358;28;20056;-77
2023/04/07 11:34:02;;;;;;;4.90;2.53;;;13.30;92.40;;;;;;5022380;28;20029;-77
2023/04/07 11:36:37;;;;;;;4.57;2.30;;;13.30;92.60;;;;;;5007953;28;20037;-78
2023/04/07 11:39:03;;;;;;;5.65;2.35;;;13.10;92.60;;;;;;5008718;28;20061;-77
2023/04/07 11:41:32;;;;;;;4.20;1.98;;;13.10;92.70;;;;;;5003409;28;20049;-76
2023/04/07 11:44:13;;;;;;;4.50;2.33;;;13.20;92.70;;;;;;5008572;28;20421;-77
2023/04/07 11:46:59;;;;;;;6.35;2.53;;;13.10;91.80;;;;;;5008544;28;20029;-76
2023/04/07 11:49:27;;;;;;;5.93;2.15;;;13.10;91.70;;;;;;5009262;28;20045;-77
2023/04/07 11:52:06;;;;;;;3.88;2.10;;;13.00;92.50;;;;;;5007410;28;20034;-77
2023/04/07 11:54:41;;;;;;;6.75;2.53;;;12.90;93.40;;;;;;5024429;28;20026;-77
2023/04/07 11:57:09;;;;;;;5.47;1.95;;;12.90;94.10;;;;;;5018014;28;20139;-77
2023/04/07 11:59:34;;;;;;;3.83;2.22;;;12.80;94.50;;;;;;5014145;28;20036;-78
2023/04/07 12:02:03;;;;;;;5.15;2.30;;;12.80;94.70;;;;;;5011459;28;20183;-79
2023/04/07 12:04:30;;;;;;;4.90;2.10;;;12.50;94.90;;;;;;5021300;28;20032;-79
2023/04/07 12:07:09;;;;;;;4.30;2.05;;;12.60;95.20;;;;;;5010332;28;20018;-78
2023/04/07 12:09:35;;;;;;;4.45;2.00;;;12.50;95.50;;;;;;4999845;28;20030;-77
2023/04/07 12:12:02;;;;;;;2.95;1.70;;;12.60;95.70;;;;;;5010081;28;20045;-78
2023/04/07 12:14:28;;;;;;;3.03;1.42;;;12.50;95.50;;;;;;5002493;28;20021;-77
2023/04/07 12:16:57;;;;;;;4.05;1.17;;;12.50;94.90;;;;;;4998650;22;20038;-81
2023/04/07 12:19:27;;;;;;;2.20;1.10;;;12.50;94.80;;;;;;4969057;28;20094;-81
2023/04/07 12:21:52;;;;;;;2.70;0.90;;;12.50;94.50;;;;;;4966857;28;20023;-81
2023/04/07 12:24:18;;;;;;;1.48;0.75;;;12.50;94.20;;;;;;4970958;28;20037;-81
2023/04/07 12:26:44;;;;;;;3.10;1.10;;;12.50;94.30;;;;;;4975769;28;20022;-81
2023/04/07 12:29:09;;;;;;;4.85;1.00;;;12.50;94.40;;;;;;4972759;28;20031;-81
2023/04/07 12:31:35;;;;;;;2.58;1.25;;;12.40;94.70;;;;;;4973454;28;20023;-81
2023/04/07 12:34:01;;;;;;;3.65;1.20;;;12.30;95.10;;;;;;4966143;28;20484;-81
2023/04/07 12:36:28;;;;;;;3.85;1.20;;;12.10;95.60;;;;;;4971862;28;20380;-81
2023/04/07 12:38:54;;;;;;;3.38;1.40;;;12.00;96.10;;;;;;4969515;28;20091;-82
2023/04/07 12:41:21;;;;;;;3.13;1.10;;;12.00;96.60;;;;;;4974884;28;20023;-81
2023/04/07 12:43:46;;;;;;;4.20;1.27;;;12.00;96.40;;;;;;4971328;28;20093;-81
2023/04/07 12:46:12;;;;;;;3.67;1.10;;;11.90;96.50;;;;;;4970052;28;20027;-81
2023/04/07 12:48:38;;;;;;;2.50;1.20;;;11.90;96.60;;;;;;4987926;28;20040;-81
2023/04/07 12:51:04;;;;;;;2.08;1.25;;;11.90;96.60;;;;;;4972185;28;20031;-81
2023/04/07 12:53:30;;;;;;;3.15;1.38;;;11.80;96.50;;;;;;4968962;28;20025;-81
2023/04/07 12:55:56;;;;;;;3.65;1.70;;;11.80;96.60;;;;;;4967497;28;20027;-81
2023/04/07 12:58:23;;;;;;;2.78;1.27;;;11.90;96.70;;;;;;4966641;28;20399;-81